Orleans, Canada
Current Conditions -  °F | °C
As of 1:00 PM on Wednesday 28 Jan 2015 (Local Time) from CYND Reporting Station
Few Clouds Few Clouds  
Wind Chill:   Ceiling: Unl
Heat Index: 18°   Visibility: 15mi
Dew Point: -2°   Wind: 6mph
Humidity: 42%   Direction: 250°WSW
Pressure: 30.22"   Gusts: NA
Location:  45.47°N, 75.52°W
Report Text: CYND 281800Z 25005KT 240V330 15SM FEW220 M08/M19 A3022 RMK CI1 SLP238
Loading
Personal Weather Stations






























Interactive Weather Map New forecast layout! Learn more

10-Day Weather Forecast

Advertisements
Track Severe Weather on mobile